createdAt,value
2023-05-07T00:01:18.222Z,55.00
2023-05-07T00:03:47.310Z,54.60
2023-05-07T00:06:15.485Z,54.60
2023-05-07T00:08:43.215Z,54.50
2023-05-07T00:11:10.972Z,54.50
2023-05-07T00:13:40.029Z,54.40
2023-05-07T00:16:07.891Z,54.40
2023-05-07T00:18:35.654Z,54.30
2023-05-07T00:21:03.348Z,54.20
2023-05-07T00:23:31.113Z,54.10
2023-05-07T00:25:58.823Z,54.10
2023-05-07T00:28:26.552Z,54.10
2023-05-07T00:30:56.241Z,54.00
2023-05-07T00:33:24.163Z,54.00
2023-05-07T00:35:51.879Z,53.90
2023-05-07T00:38:19.702Z,53.80
2023-05-07T00:40:47.567Z,53.70
2023-05-07T00:43:15.907Z,53.60
2023-05-07T00:45:43.616Z,53.60
2023-05-07T00:48:12.659Z,53.60
2023-05-07T00:50:40.406Z,53.50
2023-05-07T00:53:08.341Z,53.40
2023-05-07T00:55:36.617Z,53.30
2023-05-07T00:58:04.304Z,53.30
2023-05-07T01:00:32.006Z,53.30
2023-05-07T01:02:59.833Z,53.30
2023-05-07T01:05:29.155Z,53.30
2023-05-07T01:07:57.209Z,53.20
2023-05-07T01:10:25.114Z,53.10
2023-05-07T01:12:52.834Z,53.20
2023-05-07T01:15:20.652Z,53.00
2023-05-07T01:17:48.524Z,52.80
2023-05-07T01:20:24.573Z,52.70
2023-05-07T01:22:55.651Z,52.70
2023-05-07T01:25:23.551Z,52.50
2023-05-07T01:27:54.286Z,52.60
2023-05-07T01:30:26.648Z,52.50
2023-05-07T01:32:58.643Z,52.40
2023-05-07T01:35:28.732Z,52.30
2023-05-07T01:37:57.761Z,52.30
2023-05-07T01:40:25.552Z,52.20
2023-05-07T01:42:53.311Z,52.10
2023-05-07T01:45:21.196Z,52.10
2023-05-07T01:47:48.996Z,52.00
2023-05-07T01:50:16.719Z,52.10
2023-05-07T01:52:44.403Z,52.10
2023-05-07T01:55:13.518Z,52.10
2023-05-07T01:57:41.981Z,52.00
2023-05-07T02:00:10.872Z,51.90
2023-05-07T02:02:45.958Z,52.00
2023-05-07T02:05:28.852Z,51.90
2023-05-07T02:08:01.529Z,51.80
2023-05-07T02:10:32.205Z,51.80
2023-05-07T02:13:02.683Z,51.80
2023-05-07T02:15:30.515Z,51.80
2023-05-07T02:18:01.398Z,51.80
2023-05-07T02:20:29.604Z,51.70
2023-05-07T02:22:57.962Z,51.70
2023-05-07T02:25:27.606Z,51.70
2023-05-07T02:27:56.954Z,51.70
2023-05-07T02:30:34.491Z,51.70
2023-05-07T02:33:02.379Z,51.70
2023-05-07T02:35:30.282Z,51.70
2023-05-07T02:37:57.989Z,51.70
2023-05-07T02:40:26.835Z,51.70
2023-05-07T02:42:54.509Z,52.30
2023-05-07T02:45:23.663Z,51.70
2023-05-07T02:47:54.005Z,51.70
2023-05-07T02:50:21.938Z,51.70
2023-05-07T02:52:49.762Z,51.70
2023-05-07T02:55:17.853Z,51.70
2023-05-07T02:57:45.641Z,51.70
2023-05-07T03:00:15.258Z,51.70
2023-05-07T03:02:50.796Z,51.70
2023-05-07T03:05:18.692Z,51.70
2023-05-07T03:07:47.127Z,51.70
2023-05-07T03:10:16.010Z,51.70
2023-05-07T03:12:43.796Z,51.70
2023-05-07T03:15:15.326Z,51.70
2023-05-07T03:17:43.134Z,51.80
2023-05-07T03:20:14.258Z,51.70
2023-05-07T03:22:43.083Z,51.80
2023-05-07T03:25:11.068Z,51.70
2023-05-07T03:27:38.968Z,51.70
2023-05-07T03:30:08.655Z,51.70
2023-05-07T03:32:36.718Z,51.80
2023-05-07T03:35:08.495Z,51.80
2023-05-07T03:37:37.718Z,51.90
2023-05-07T03:40:07.230Z,51.90
2023-05-07T03:42:43.021Z,52.00
2023-05-07T03:45:11.828Z,51.90
2023-05-07T03:47:43.620Z,52.00
2023-05-07T03:50:13.498Z,52.00
2023-05-07T03:52:42.666Z,52.10
2023-05-07T03:55:11.746Z,52.20
2023-05-07T03:57:42.318Z,52.20
2023-05-07T04:00:11.195Z,52.20
2023-05-07T04:02:48.384Z,52.30
2023-05-07T04:05:20.748Z,52.30
2023-05-07T04:07:53.132Z,52.30
2023-05-07T04:10:26.440Z,52.30
2023-05-07T04:12:58.042Z,52.30
2023-05-07T04:15:27.603Z,52.40
2023-05-07T04:17:56.289Z,52.40
2023-05-07T04:20:25.636Z,52.50
2023-05-07T04:23:01.516Z,52.60
2023-05-07T04:25:30.249Z,52.60
2023-05-07T04:28:04.792Z,52.60
2023-05-07T04:30:32.689Z,52.60
2023-05-07T04:33:00.421Z,52.70
2023-05-07T04:35:30.782Z,52.70
2023-05-07T04:38:00.684Z,52.80
2023-05-07T04:40:28.415Z,52.80
2023-05-07T04:42:56.294Z,52.90
2023-05-07T04:45:24.712Z,52.80
2023-05-07T04:47:54.957Z,52.90
2023-05-07T04:50:25.272Z,52.90
2023-05-07T04:52:56.639Z,53.00
2023-05-07T04:55:26.900Z,53.00
2023-05-07T04:57:54.965Z,53.70
2023-05-07T05:00:23.970Z,53.00
2023-05-07T05:02:53.924Z,53.10
2023-05-07T05:05:23.656Z,53.70
2023-05-07T05:07:54.064Z,53.10
2023-05-07T05:10:24.629Z,53.20
2023-05-07T05:12:54.156Z,53.10
2023-05-07T05:15:24.194Z,53.20
2023-05-07T05:17:52.244Z,53.30
2023-05-07T05:20:21.473Z,53.30
2023-05-07T05:22:50.344Z,53.30
2023-05-07T05:25:18.127Z,53.30
2023-05-07T05:27:45.999Z,53.40
2023-05-07T05:30:16.079Z,53.40
2023-05-07T05:32:47.288Z,53.50
2023-05-07T05:35:15.216Z,53.50
2023-05-07T05:37:45.028Z,53.60
2023-05-07T05:40:14.037Z,53.60
2023-05-07T05:42:41.910Z,53.50
2023-05-07T05:45:11.598Z,53.50
2023-05-07T05:47:43.156Z,53.50
2023-05-07T05:50:11.579Z,53.60
2023-05-07T05:52:39.768Z,53.60
2023-05-07T05:55:08.584Z,53.60
2023-05-07T05:57:37.511Z,53.70
2023-05-07T06:00:06.065Z,53.70
2023-05-07T06:02:35.044Z,53.70
2023-05-07T06:05:06.684Z,53.70
2023-05-07T06:07:35.512Z,53.80
2023-05-07T06:10:03.356Z,53.80
2023-05-07T06:12:32.912Z,53.70
2023-05-07T06:15:00.587Z,53.90
2023-05-07T06:17:28.429Z,53.80
2023-05-07T06:19:56.291Z,53.90
2023-05-07T06:22:25.485Z,53.90
2023-05-07T06:24:53.313Z,53.90
2023-05-07T06:27:21.708Z,54.00
2023-05-07T06:29:50.129Z,54.00
2023-05-07T06:32:20.640Z,54.00
2023-05-07T06:34:48.388Z,54.00
2023-05-07T06:37:16.864Z,54.00
2023-05-07T06:39:54.777Z,54.00
2023-05-07T06:42:22.491Z,54.00
2023-05-07T06:44:51.527Z,54.00
2023-05-07T06:47:19.979Z,54.10
2023-05-07T06:49:52.173Z,54.00
2023-05-07T06:52:23.159Z,54.10
2023-05-07T06:54:53.518Z,54.10
2023-05-07T06:57:23.144Z,54.20
2023-05-07T06:59:50.822Z,54.10
2023-05-07T07:02:18.629Z,54.20
2023-05-07T07:04:48.121Z,54.20
2023-05-07T07:07:16.051Z,54.10
2023-05-07T07:09:46.498Z,54.80
2023-05-07T07:12:18.563Z,54.20
2023-05-07T07:14:46.260Z,54.30
2023-05-07T07:17:15.597Z,54.20
2023-05-07T07:19:43.294Z,54.30
2023-05-07T07:22:11.410Z,54.30
2023-05-07T07:24:40.221Z,54.40
2023-05-07T07:27:10.525Z,54.60
2023-05-07T07:29:39.555Z,54.40
2023-05-07T07:32:07.485Z,54.40
2023-05-07T07:34:35.278Z,54.40
2023-05-07T07:37:06.336Z,54.40
2023-05-07T07:39:34.712Z,54.40
2023-05-07T07:42:02.555Z,54.40
2023-05-07T07:44:31.557Z,52.50
2023-05-07T07:47:05.822Z,51.30
2023-05-07T07:49:34.002Z,49.80
2023-05-07T07:52:05.793Z,49.50
2023-05-07T07:54:36.036Z,49.00
2023-05-07T07:57:05.059Z,49.10
2023-05-07T07:59:35.095Z,48.80
2023-05-07T08:02:02.832Z,48.20
2023-05-07T08:04:34.198Z,48.00
2023-05-07T08:07:05.181Z,47.60
2023-05-07T08:09:35.629Z,46.80
2023-05-07T08:12:05.196Z,47.20
2023-05-07T08:14:34.607Z,47.10
2023-05-07T08:17:02.565Z,46.80
2023-05-07T08:19:34.266Z,46.70
2023-05-07T08:22:02.475Z,46.70
2023-05-07T08:24:30.395Z,46.70
2023-05-07T08:26:58.132Z,46.60
2023-05-07T08:29:25.817Z,46.60
2023-05-07T08:31:54.873Z,46.60
2023-05-07T08:34:23.456Z,46.80
2023-05-07T08:36:54.799Z,46.50
2023-05-07T08:39:24.859Z,46.20
2023-05-07T08:41:54.890Z,45.60
2023-05-07T08:44:22.947Z,45.20
2023-05-07T08:46:52.592Z,44.90
2023-05-07T08:49:20.657Z,44.70
2023-05-07T08:51:48.458Z,44.60
2023-05-07T08:54:20.671Z,44.40
2023-05-07T08:56:48.560Z,44.10
2023-05-07T08:59:17.190Z,44.50
2023-05-07T09:01:46.270Z,44.10
2023-05-07T09:04:14.919Z,44.50
2023-05-07T09:06:43.547Z,45.60
2023-05-07T09:09:16.056Z,46.20
2023-05-07T09:11:45.152Z,47.00
2023-05-07T09:14:14.767Z,47.60
2023-05-07T09:16:45.372Z,48.30
2023-05-07T09:19:13.171Z,48.70
2023-05-07T09:21:45.302Z,48.60
2023-05-07T09:24:16.797Z,49.40
2023-05-07T09:26:46.477Z,50.70
2023-05-07T09:29:17.888Z,50.90
2023-05-07T09:31:45.907Z,51.00
2023-05-07T09:34:16.717Z,50.30
2023-05-07T09:36:46.908Z,50.60
2023-05-07T09:39:15.104Z,50.90
2023-05-07T09:41:47.876Z,51.40
2023-05-07T09:44:22.553Z,52.30
2023-05-07T09:46:55.718Z,51.90
2023-05-07T09:49:31.919Z,53.00
2023-05-07T09:52:07.012Z,52.60
2023-05-07T09:54:38.801Z,53.00
2023-05-07T09:57:09.480Z,53.80
2023-05-07T09:59:37.568Z,54.80
2023-05-07T10:02:07.963Z,55.00
2023-05-07T10:04:42.695Z,55.00
2023-05-07T10:07:10.909Z,55.10
2023-05-07T10:09:40.328Z,55.90
2023-05-07T10:12:14.248Z,57.20
2023-05-07T10:14:42.403Z,58.10
2023-05-07T10:17:12.709Z,58.30
2023-05-07T10:19:42.984Z,57.90
2023-05-07T10:22:10.877Z,56.30
2023-05-07T10:24:43.094Z,55.90
2023-05-07T10:27:17.689Z,54.90
2023-05-07T10:29:53.050Z,54.90
2023-05-07T10:32:30.577Z,53.40
2023-05-07T10:34:59.394Z,53.40
2023-05-07T10:37:27.101Z,54.00
2023-05-07T10:39:58.054Z,53.30
2023-05-07T10:42:28.644Z,53.10
2023-05-07T10:44:58.365Z,53.30
2023-05-07T10:47:31.636Z,53.30
2023-05-07T10:50:25.429Z,54.50
2023-05-07T10:53:25.088Z,55.20
2023-05-07T10:56:27.139Z,54.10
2023-05-07T10:59:42.661Z,53.80
2023-05-07T11:02:22.572Z,53.60
2023-05-07T11:05:21.742Z,53.70
2023-05-07T11:07:58.464Z,53.10
2023-05-07T11:10:49.774Z,53.30
2023-05-07T11:13:45.681Z,53.00
2023-05-07T11:16:23.915Z,52.30
2023-05-07T11:18:58.579Z,52.50
2023-05-07T11:21:37.281Z,52.10
2023-05-07T11:24:24.455Z,51.90
2023-05-07T11:26:56.868Z,51.90
2023-05-07T11:29:26.704Z,51.40
2023-05-07T11:32:01.253Z,51.50
2023-05-07T11:34:33.756Z,51.40
2023-05-07T11:37:01.711Z,51.10
2023-05-07T11:39:41.391Z,50.60
2023-05-07T11:42:09.560Z,50.30
2023-05-07T11:44:44.464Z,49.50
2023-05-07T11:47:13.809Z,47.30
2023-05-07T11:49:41.642Z,46.90
2023-05-07T11:52:09.368Z,47.80
2023-05-07T11:54:38.099Z,47.50
2023-05-07T11:57:06.656Z,47.70
2023-05-07T11:59:40.905Z,47.60
2023-05-07T12:02:08.585Z,48.00
2023-05-07T12:04:37.706Z,48.10
2023-05-07T12:07:05.432Z,47.80
2023-05-07T12:09:34.614Z,47.80
2023-05-07T12:12:05.484Z,47.80
2023-05-07T12:14:33.627Z,47.60
2023-05-07T12:17:03.070Z,48.20
2023-05-07T12:19:31.022Z,47.90
2023-05-07T12:22:00.056Z,48.00
2023-05-07T12:24:27.796Z,47.90
2023-05-07T12:26:55.546Z,47.50
2023-05-07T12:29:23.714Z,47.90
2023-05-07T12:31:51.796Z,47.70
2023-05-07T12:34:19.462Z,48.30
2023-05-07T12:36:47.222Z,48.40
2023-05-07T12:39:16.339Z,48.60
2023-05-07T12:41:56.816Z,49.00
2023-05-07T12:44:25.433Z,49.60
2023-05-07T12:46:53.642Z,50.00
2023-05-07T12:49:23.733Z,49.60
2023-05-07T12:51:52.782Z,50.80
2023-05-07T12:54:31.579Z,50.50
2023-05-07T12:57:03.578Z,50.30
2023-05-07T12:59:35.627Z,50.40
2023-05-07T13:02:03.489Z,51.00
2023-05-07T13:04:31.241Z,50.80
2023-05-07T13:06:59.783Z,51.50
2023-05-07T13:09:27.548Z,51.30
2023-05-07T13:11:56.606Z,51.60
2023-05-07T13:14:24.235Z,51.70
2023-05-07T13:16:52.124Z,52.60
2023-05-07T13:19:19.952Z,52.90
2023-05-07T13:21:47.655Z,53.30
2023-05-07T13:24:15.343Z,53.20
2023-05-07T13:26:46.053Z,52.90
2023-05-07T13:29:15.303Z,53.40
2023-05-07T13:31:45.055Z,53.80
2023-05-07T13:34:12.810Z,53.90
2023-05-07T13:36:42.790Z,55.50
2023-05-07T13:39:10.592Z,54.20
2023-05-07T13:41:38.323Z,55.30
2023-05-07T13:44:06.175Z,55.30
2023-05-07T13:46:35.319Z,54.70
2023-05-07T13:49:03.055Z,54.40
2023-05-07T13:51:31.023Z,55.60
2023-05-07T13:53:59.390Z,56.00
2023-05-07T13:56:27.177Z,54.30
2023-05-07T13:59:00.221Z,54.40
2023-05-07T14:01:28.875Z,53.50
2023-05-07T14:03:58.546Z,53.30
2023-05-07T14:06:26.395Z,53.20
2023-05-07T14:08:54.170Z,53.90
2023-05-07T14:11:22.284Z,52.40
2023-05-07T14:13:50.334Z,52.40
2023-05-07T14:16:18.322Z,52.30
2023-05-07T14:18:46.143Z,53.00
2023-05-07T14:21:15.349Z,52.20
2023-05-07T14:23:43.032Z,52.40
2023-05-07T14:26:10.772Z,52.00
2023-05-07T14:28:40.385Z,49.90
2023-05-07T14:31:08.269Z,47.80
2023-05-07T14:33:36.186Z,45.80
2023-05-07T14:36:04.558Z,44.90
2023-05-07T14:38:34.516Z,43.20
2023-05-07T14:41:02.197Z,41.60
2023-05-07T14:43:29.897Z,42.20
2023-05-07T14:45:57.732Z,41.50
2023-05-07T14:48:25.622Z,40.70
2023-05-07T14:50:53.453Z,39.70
2023-05-07T14:53:21.147Z,40.80
2023-05-07T14:55:50.732Z,40.10
2023-05-07T14:58:18.621Z,41.00
2023-05-07T15:00:46.328Z,40.00
2023-05-07T15:03:14.378Z,40.50
2023-05-07T15:05:44.474Z,40.10
2023-05-07T15:08:12.332Z,39.70
2023-05-07T15:10:42.112Z,40.70
2023-05-07T15:13:15.275Z,40.80
2023-05-07T15:15:43.836Z,40.30
2023-05-07T15:18:11.535Z,40.20
2023-05-07T15:20:39.359Z,40.60
2023-05-07T15:23:10.568Z,40.20
2023-05-07T15:25:39.442Z,41.10
2023-05-07T15:28:07.855Z,41.00
2023-05-07T15:30:36.990Z,41.40
2023-05-07T15:33:04.933Z,40.90
2023-05-07T15:35:32.916Z,41.00
2023-05-07T15:38:00.656Z,41.50
2023-05-07T15:40:29.372Z,41.90
2023-05-07T15:42:57.433Z,42.30
2023-05-07T15:45:25.424Z,41.90
2023-05-07T15:47:54.569Z,42.40
2023-05-07T15:50:22.507Z,43.30
2023-05-07T15:52:51.047Z,42.10
2023-05-07T15:55:18.812Z,42.10
2023-05-07T15:57:47.543Z,43.40
2023-05-07T16:00:17.305Z,42.80
2023-05-07T16:02:45.148Z,43.20
2023-05-07T16:05:14.634Z,44.40
2023-05-07T16:07:44.016Z,44.70
2023-05-07T16:10:12.453Z,45.10
2023-05-07T16:12:40.216Z,45.50
2023-05-07T16:15:08.954Z,45.90
2023-05-07T16:17:36.775Z,47.10
2023-05-07T16:20:06.342Z,47.00
2023-05-07T16:22:36.607Z,47.10
2023-05-07T16:25:05.175Z,47.60
2023-05-07T16:27:33.017Z,48.20
2023-05-07T16:30:00.757Z,48.50
2023-05-07T16:32:29.986Z,48.60
2023-05-07T16:34:57.809Z,48.80
2023-05-07T16:37:25.488Z,49.00
2023-05-07T16:39:56.360Z,50.00
2023-05-07T16:42:24.052Z,49.80
2023-05-07T16:44:51.784Z,50.20
2023-05-07T16:47:19.491Z,50.40
2023-05-07T16:49:47.159Z,50.70
2023-05-07T16:52:14.968Z,51.70
2023-05-07T16:54:42.687Z,51.70
2023-05-07T16:57:11.736Z,52.50
2023-05-07T16:59:39.433Z,52.20
2023-05-07T17:02:07.388Z,52.70
2023-05-07T17:04:35.492Z,52.60
2023-05-07T17:07:03.231Z,52.20
2023-05-07T17:09:30.951Z,53.00
2023-05-07T17:11:58.745Z,52.30
2023-05-07T17:14:28.112Z,51.70
2023-05-07T17:16:55.965Z,51.80
2023-05-07T17:19:24.259Z,52.90
2023-05-07T17:21:52.403Z,53.30
2023-05-07T17:24:20.543Z,54.00
2023-05-07T17:26:48.771Z,54.20
2023-05-07T17:29:16.554Z,54.30
2023-05-07T17:31:45.748Z,54.30
2023-05-07T17:34:13.610Z,54.60
2023-05-07T17:36:41.418Z,54.70
2023-05-07T17:39:09.184Z,54.80
2023-05-07T17:41:37.310Z,54.90
2023-05-07T17:44:05.300Z,55.10
2023-05-07T17:46:33.109Z,55.20
2023-05-07T17:49:02.170Z,55.30
2023-05-07T17:51:36.040Z,55.50
2023-05-07T17:54:07.038Z,55.50
2023-05-07T17:56:34.915Z,55.60
2023-05-07T17:59:02.758Z,55.70
2023-05-07T18:01:30.853Z,55.80
2023-05-07T18:03:58.900Z,55.90
2023-05-07T18:06:28.056Z,56.00
2023-05-07T18:08:56.744Z,56.10
2023-05-07T18:11:24.681Z,56.10
2023-05-07T18:13:52.488Z,56.10
2023-05-07T18:16:20.396Z,56.20
2023-05-07T18:18:48.202Z,56.20
2023-05-07T18:21:18.707Z,56.40
2023-05-07T18:23:48.012Z,56.40
2023-05-07T18:26:15.809Z,56.50
2023-05-07T18:28:43.548Z,56.50
2023-05-07T18:31:11.349Z,56.60
2023-05-07T18:33:39.127Z,56.70
2023-05-07T18:36:07.544Z,56.70
2023-05-07T18:38:35.243Z,56.90
2023-05-07T18:41:04.395Z,57.00
2023-05-07T18:43:33.487Z,57.00
2023-05-07T18:46:01.296Z,57.00
2023-05-07T18:48:29.061Z,57.20
2023-05-07T18:50:56.920Z,57.30
2023-05-07T18:53:24.677Z,57.30
2023-05-07T18:55:52.471Z,57.50
2023-05-07T18:58:21.734Z,57.60
2023-05-07T19:00:49.927Z,57.80
2023-05-07T19:03:17.777Z,57.90
2023-05-07T19:05:45.701Z,57.90
2023-05-07T19:08:13.741Z,58.00
2023-05-07T19:10:41.684Z,58.10
2023-05-07T19:13:09.401Z,58.30
2023-05-07T19:15:38.448Z,58.50
2023-05-07T19:18:06.374Z,58.70
2023-05-07T19:20:34.108Z,58.80
2023-05-07T19:23:01.949Z,58.90
2023-05-07T19:25:29.747Z,59.10
2023-05-07T19:27:57.462Z,59.10
2023-05-07T19:30:25.315Z,59.40
2023-05-07T19:32:54.372Z,59.50
2023-05-07T19:35:22.294Z,59.90
2023-05-07T19:37:50.087Z,60.00
2023-05-07T19:40:17.922Z,60.10
2023-05-07T19:42:46.750Z,60.70
2023-05-07T19:45:15.750Z,60.80
2023-05-07T19:47:43.562Z,61.20
2023-05-07T19:50:12.879Z,61.60
2023-05-07T19:52:40.518Z,62.30
2023-05-07T19:55:09.093Z,62.70
2023-05-07T19:57:36.742Z,63.40
2023-05-07T20:00:05.065Z,64.10
2023-05-07T20:02:40.821Z,64.90
2023-05-07T20:05:11.150Z,65.40
2023-05-07T20:07:40.238Z,66.20
2023-05-07T20:10:08.973Z,67.20
2023-05-07T20:12:36.934Z,67.50
2023-05-07T20:15:05.032Z,67.90
2023-05-07T20:17:32.712Z,68.90
2023-05-07T20:20:00.437Z,69.10
2023-05-07T20:22:30.955Z,69.70
2023-05-07T20:24:59.956Z,70.60
2023-05-07T20:27:27.696Z,70.90
2023-05-07T20:29:55.431Z,71.00
2023-05-07T20:32:23.095Z,71.20
2023-05-07T20:34:50.799Z,71.90
2023-05-07T20:37:18.430Z,72.00
2023-05-07T20:39:46.262Z,72.80
2023-05-07T20:42:15.254Z,73.10
2023-05-07T20:44:42.923Z,73.20
2023-05-07T20:47:10.814Z,73.10
2023-05-07T20:49:38.574Z,73.30
2023-05-07T20:52:07.041Z,73.40
2023-05-07T20:54:39.909Z,73.50
2023-05-07T20:57:07.662Z,73.60
2023-05-07T20:59:36.727Z,73.60
2023-05-07T21:02:04.427Z,73.40
2023-05-07T21:04:32.211Z,73.50
2023-05-07T21:07:00.205Z,73.80
2023-05-07T21:09:27.884Z,73.20
2023-05-07T21:11:55.540Z,73.00
2023-05-07T21:14:23.213Z,72.50
2023-05-07T21:16:52.247Z,72.70
2023-05-07T21:19:20.050Z,72.40
2023-05-07T21:21:48.305Z,72.00
2023-05-07T21:24:15.944Z,71.40
2023-05-07T21:26:43.757Z,71.30
2023-05-07T21:29:11.437Z,70.70
2023-05-07T21:31:39.152Z,70.30
2023-05-07T21:34:08.435Z,70.10
2023-05-07T21:36:36.149Z,69.80
2023-05-07T21:39:04.573Z,69.70
2023-05-07T21:41:32.264Z,69.00
2023-05-07T21:44:50.847Z,68.40
2023-05-07T21:47:18.507Z,67.40
2023-05-07T21:49:47.505Z,67.70
2023-05-07T21:52:15.452Z,67.10
2023-05-07T21:54:43.270Z,66.80
2023-05-07T21:57:11.015Z,66.20
2023-05-07T21:59:38.673Z,66.00
2023-05-07T22:02:06.655Z,65.70
2023-05-07T22:04:34.299Z,65.40
2023-05-07T22:07:03.304Z,65.20
2023-05-07T22:09:31.013Z,64.70
2023-05-07T22:11:58.757Z,64.70
2023-05-07T22:14:26.406Z,63.80
2023-05-07T22:17:48.101Z,63.40
2023-05-07T22:20:16.150Z,62.10
2023-05-07T22:22:51.181Z,62.60
2023-05-07T22:25:20.000Z,61.20
2023-05-07T22:27:47.672Z,60.80
2023-05-07T22:30:15.450Z,60.80
2023-05-07T22:32:43.147Z,59.80
2023-05-07T22:35:11.183Z,59.70
2023-05-07T22:37:39.215Z,59.20
2023-05-07T22:40:09.546Z,58.80
2023-05-07T22:43:18.743Z,57.70
2023-05-07T22:45:46.635Z,56.60
2023-05-07T22:48:21.595Z,57.20
2023-05-07T22:50:49.309Z,55.90
2023-05-07T22:53:16.970Z,56.30
2023-05-07T22:55:45.960Z,55.80
2023-05-07T22:58:13.613Z,55.40
2023-05-07T23:00:41.422Z,55.00
2023-05-07T23:03:09.275Z,54.70
2023-05-07T23:05:37.221Z,54.20
2023-05-07T23:08:05.084Z,53.90
2023-05-07T23:10:34.458Z,54.20
2023-05-07T23:13:03.588Z,53.30
2023-05-07T23:15:33.287Z,52.70
2023-05-07T23:18:01.042Z,52.50
2023-05-07T23:20:28.793Z,52.20
2023-05-07T23:22:56.856Z,51.80
2023-05-07T23:25:24.521Z,51.40
2023-05-07T23:27:52.186Z,51.10
2023-05-07T23:30:21.437Z,50.60
2023-05-07T23:32:49.267Z,50.00
2023-05-07T23:35:16.986Z,50.00
2023-05-07T23:37:44.685Z,49.60
2023-05-07T23:40:12.825Z,49.40
2023-05-07T23:42:40.793Z,49.00
2023-05-07T23:45:09.395Z,48.70
2023-05-07T23:47:38.595Z,48.40
2023-05-07T23:50:07.250Z,47.90
2023-05-07T23:52:34.920Z,47.80
2023-05-07T23:55:02.612Z,47.50
2023-05-07T23:57:30.330Z,47.10
